Airfield :
LOGIN :

Register | Disclaimer

   EN    FR    IT 

 










Legend :    VFR   Marginal VFR   IFR   Intensive IFR   Very Intensive IFR
Visi :
Ceiling :
>= 8 km
>= 3000ft
5 to 8 km
1000 to 3000 ft
1500m to 5 km
500 to 1000 ft
800 to 1500m
200 to 500 ft
< 800m
< 200 ft
Symbols :   Thunderstorms  Fog  Heavy snow  Heavy precipitations  Wind > 20 kt
SIGMETs :     Misc.  Thunderstorms  Icing  Turbulence  Mountain Waves  Volcanic Ashes






- Airport Elevation : 14 ft
- IATA code : BRE


EDDW - Bremen Neuenland

CURRENT METAR :
  • 270750Z 22009KT 9999 FEW010 02/01 Q1001 TEMPO BKN012

EXPIRED METARs :
  • 270720Z 22008KT 9999 FEW010 02/01 Q1001 TEMPO BKN012
  • 270650Z 23010KT 9999 SCT010 02/00 Q1001 TEMPO BKN012
  • 270620Z 24009KT 9999 BKN010 02/00 Q1001 TEMPO BKN008
  • 270550Z 24010KT 9999 SCT012 02/00 Q1002 TEMPO BKN012
  • 270520Z 24011KT 9999 BKN011 02/01 Q1002 NOSIG

TAF TAF EDDW
Valid from the 27 at 06:00 until the 28 at 06:00 UTC


270500Z 2706/2806 24010KT 9999 BKN008
BECMG 2706/2709 BKN020
BECMG 2715/2717 21004KT
BECMG 2720/2722 27009KT BKN012
TEMPO 2721/2801 2500 -RASN BKN008
PROB30
TEMPO 2721/2724 1200 -SN BKN003
BECMG 2801/2803 SCT015



MET'MAP, your aeronautical weather chart ! - Copyright ORBIFLY December 2007 - Disclaimer

ORBIFLY MET'MAP TEAM :

Programming & Development : Alexandra Zaïnal
Concept & original design : Baudouin d'Aumeries
Assistance for programming : Marc-Olivier Méhu
Technical & hardware support : Manuel Goepfert

Contact : metmap@orbifly.com




SOURCES & CREDITS :

   NOAA